Overview Statistics Trail Chart Weather Telemetry Raw packets
 

This is the latest recevied weather packets stored in our database for station/object EA1IDU-12. If no packets are shown the sender has not sent any weather packets the latest 10 day(s).

<< 13 14 15 16 17 18 19 >>
Time Temp. Humidity Pressure Rain* Wind** Luminosity Snow
1788291610 18.89° C 53% 1030.4 hPa - - - -
1788290710 19.44° C 51% 1030.2 hPa - - - -
1788289809 20.56° C 51% 1029.9 hPa - - - -
1788288909 21.11° C 49% 1029.7 hPa - - - -
1788288009 22.22° C 46% 1029.4 hPa - - - -
1788287109 23.33° C 44% 1029.3 hPa - - - -
1788286209 24.44° C 41% 1029 hPa - - - -
1788285309 25.56° C 39% 1028.9 hPa - - - -
1788284408 26.11° C 38% 1028.8 hPa - - - -
1788283508 27.22° C 36% 1028.8 hPa - - - -
1788282608 28.33° C 33% 1028.3 hPa - - - -
1788281722 30° C 29% 1028.4 hPa - - - -
1788280808 30° C 30% 1028.5 hPa - - - -
1788279908 27.22° C 33% 1028.5 hPa - - - -
1788279007 27.22° C 32% 1028.4 hPa - - - -
1788278107 27.78° C 32% 1028.4 hPa - - - -
1788277207 28.33° C 31% 1028.4 hPa - - - -
1788276307 31.11° C 28% 1028.4 hPa - - - -
1788275407 30.56° C 29% 1028.5 hPa - - - -
1788274507 30° C 31% 1028.6 hPa - - - -
1788273606 30° C 31% 1028.7 hPa - - - -
1788272706 29.44° C 32% 1028.5 hPa - - - -
1788271806 28.33° C 34% 1028.7 hPa - - - -
1788270906 28.33° C 33% 1028.8 hPa - - - -
1788270006 30° C 32% 1028.8 hPa - - - -

* Rain since midnight (hover to see other rain measurements)
** Current wind speed in m/s (hover to see current wind gust speed)